createdAt,value
2019-04-25T00:00:46.693Z,1.63
2019-04-25T00:03:17.423Z,1.57
2019-04-25T00:05:46.879Z,1.63
2019-04-25T00:08:16.154Z,1.60
2019-04-25T00:10:45.362Z,1.43
2019-04-25T00:13:14.874Z,1.33
2019-04-25T00:15:44.883Z,1.60
2019-04-25T00:18:13.918Z,1.70
2019-04-25T00:20:44.690Z,1.60
2019-04-25T00:23:15.123Z,2.40
2019-04-25T00:26:03.548Z,1.90
2019-04-25T00:28:31.976Z,1.70
2019-04-25T00:31:02.035Z,1.63
2019-04-25T00:33:31.555Z,1.77
2019-04-25T00:36:00.097Z,2.00
2019-04-25T00:38:31.867Z,2.10
2019-04-25T00:41:01.665Z,2.00
2019-04-25T00:43:31.486Z,1.90
2019-04-25T00:46:01.523Z,1.93
2019-04-25T00:48:31.585Z,1.80
2019-04-25T00:51:01.878Z,1.80
2019-04-25T00:53:32.194Z,1.87
2019-04-25T00:56:01.454Z,1.90
2019-04-25T00:58:47.159Z,1.73
2019-04-25T01:01:17.847Z,2.00
2019-04-25T01:03:47.180Z,1.80
2019-04-25T01:06:16.044Z,1.97
2019-04-25T01:08:44.481Z,1.63
2019-04-25T01:11:13.337Z,1.83
2019-04-25T01:13:42.251Z,2.17
2019-04-25T01:16:12.005Z,1.97
2019-04-25T01:18:40.877Z,2.10
2019-04-25T01:21:09.579Z,2.00
2019-04-25T01:23:38.278Z,2.13
2019-04-25T01:26:07.283Z,2.03
2019-04-25T01:28:36.094Z,2.10
2019-04-25T01:31:06.312Z,2.07
2019-04-25T01:33:34.837Z,2.20
2019-04-25T01:38:58.912Z,2.20
2019-04-25T01:41:45.462Z,2.20
2019-04-25T01:44:15.798Z,2.17
2019-04-25T01:46:45.112Z,2.00
2019-04-25T01:49:13.996Z,1.90
2019-04-25T01:51:43.683Z,1.73
2019-04-25T01:54:14.013Z,1.90
2019-04-25T01:56:44.166Z,1.80
2019-04-25T01:59:13.496Z,1.90
2019-04-25T02:01:44.039Z,2.00
2019-04-25T02:04:13.243Z,1.90
2019-04-25T02:06:43.396Z,1.70
2019-04-25T02:09:15.712Z,1.50
2019-04-25T02:11:48.699Z,1.60
2019-04-25T02:14:17.397Z,1.93
2019-04-25T02:16:46.298Z,1.60
2019-04-25T02:19:17.574Z,1.90
2019-04-25T02:21:46.570Z,1.43
2019-04-25T02:24:15.012Z,1.90
2019-04-25T02:26:43.854Z,1.80
2019-04-25T02:29:13.645Z,1.80
2019-04-25T02:31:44.992Z,2.07
2019-04-25T02:34:17.725Z,1.80
2019-04-25T02:36:44.331Z,2.10
2019-04-25T02:39:17.270Z,1.90
2019-04-25T02:41:46.215Z,1.77
2019-04-25T02:44:14.802Z,1.80
2019-04-25T02:46:59.160Z,2.10
2019-04-25T02:49:35.926Z,2.13
2019-04-25T02:52:02.601Z,1.90
2019-04-25T02:54:31.350Z,2.00
2019-04-25T02:57:00.026Z,1.87
2019-04-25T02:59:28.588Z,2.13
2019-04-25T03:01:58.973Z,2.00
2019-04-25T03:04:27.724Z,2.10
2019-04-25T03:06:58.420Z,2.10
2019-04-25T03:09:27.018Z,1.97
2019-04-25T03:11:55.524Z,2.40
2019-04-25T03:14:26.652Z,2.07
2019-04-25T03:16:54.635Z,2.00
2019-04-25T03:19:30.773Z,2.40
2019-04-25T03:22:09.626Z,2.30
2019-04-25T03:24:37.304Z,2.60
2019-04-25T03:27:06.171Z,2.13
2019-04-25T03:29:35.940Z,2.90
2019-04-25T03:32:09.344Z,2.20
2019-04-25T03:34:35.588Z,2.10
2019-04-25T03:37:05.609Z,2.03
2019-04-25T03:39:34.726Z,2.03
2019-04-25T03:42:05.022Z,2.10
2019-04-25T03:44:33.838Z,2.13
2019-04-25T03:47:05.264Z,2.30
2019-04-25T03:49:33.679Z,2.10
2019-04-25T03:52:05.237Z,2.40
2019-04-25T03:54:33.480Z,2.27
2019-04-25T03:57:04.748Z,2.60
2019-04-25T03:59:33.590Z,2.30
2019-04-25T04:02:05.326Z,2.40
2019-04-25T04:04:33.531Z,2.50
2019-04-25T04:07:05.834Z,2.20
2019-04-25T04:09:33.809Z,2.60
2019-04-25T04:12:04.313Z,2.53
2019-04-25T04:14:33.825Z,2.40
2019-04-25T04:17:14.779Z,2.40
2019-04-25T04:19:48.268Z,2.33
2019-04-25T04:22:21.019Z,2.27
2019-04-25T04:24:51.093Z,2.13
2019-04-25T04:27:19.855Z,2.27
2019-04-25T04:30:08.068Z,2.37
2019-04-25T04:32:36.534Z,2.03
2019-04-25T04:35:06.535Z,1.93
2019-04-25T04:37:35.774Z,2.10
2019-04-25T04:40:06.213Z,2.00
2019-04-25T04:42:34.673Z,2.20
2019-04-25T04:45:03.744Z,1.67
2019-04-25T04:47:33.265Z,2.03
2019-04-25T04:50:03.887Z,2.00
2019-04-25T04:52:33.996Z,1.80
2019-04-25T04:55:07.656Z,1.97
2019-04-25T04:57:35.980Z,1.90
2019-04-25T05:00:04.568Z,1.73
2019-04-25T05:02:34.695Z,2.30
2019-04-25T05:05:20.095Z,1.73
2019-04-25T05:07:50.182Z,1.90
2019-04-25T05:10:37.911Z,1.80
2019-04-25T05:13:06.438Z,1.70
2019-04-25T05:15:34.869Z,1.80
2019-04-25T05:18:04.044Z,1.80
2019-04-25T05:20:34.195Z,1.80
2019-04-25T05:23:03.247Z,1.40
2019-04-25T05:25:32.035Z,1.50
2019-04-25T05:28:03.108Z,1.43
2019-04-25T05:30:33.641Z,1.80
2019-04-25T05:33:03.849Z,1.80
2019-04-25T05:35:33.252Z,1.80
2019-04-25T05:38:03.417Z,1.80
2019-04-25T05:40:33.331Z,1.70
2019-04-25T05:43:03.738Z,1.80
2019-04-25T05:45:34.128Z,1.50
2019-04-25T05:48:04.225Z,1.43
2019-04-25T05:50:33.865Z,2.50
2019-04-25T05:53:04.166Z,2.00
2019-04-25T05:55:34.111Z,1.67
2019-04-25T05:58:03.854Z,1.70
2019-04-25T06:00:34.025Z,1.80
2019-04-25T06:03:03.614Z,1.63
2019-04-25T06:05:33.520Z,1.40
2019-04-25T06:08:04.146Z,1.37
2019-04-25T06:10:34.626Z,1.50
2019-04-25T06:13:05.786Z,1.40
2019-04-25T06:15:35.391Z,1.43
2019-04-25T06:18:05.542Z,1.60
2019-04-25T06:20:38.018Z,1.50
2019-04-25T06:23:10.869Z,1.47
2019-04-25T06:25:39.986Z,1.67
2019-04-25T06:28:13.734Z,1.70
2019-04-25T06:30:44.275Z,1.60
2019-04-25T06:33:13.375Z,1.50
2019-04-25T06:35:42.137Z,1.87
2019-04-25T06:38:10.901Z,1.40
2019-04-25T06:40:39.333Z,2.13
2019-04-25T06:43:08.196Z,1.70
2019-04-25T06:46:14.212Z,1.40
2019-04-25T06:48:45.588Z,1.43
2019-04-25T06:51:14.664Z,1.60
2019-04-25T06:53:43.696Z,1.90
2019-04-25T06:56:13.721Z,1.40
2019-04-25T06:58:43.827Z,1.60
2019-04-25T07:01:13.523Z,1.50
2019-04-25T07:03:42.093Z,1.70
2019-04-25T07:06:10.827Z,1.57
2019-04-25T07:08:39.269Z,1.57
2019-04-25T07:11:08.043Z,1.53
2019-04-25T07:13:38.863Z,1.47
2019-04-25T07:16:07.569Z,1.80
2019-04-25T07:18:37.384Z,1.70
2019-04-25T07:21:06.308Z,1.30
2019-04-25T07:23:35.774Z,1.57
2019-04-25T07:26:06.338Z,2.00
2019-04-25T07:28:39.208Z,1.57
2019-04-25T07:31:13.342Z,1.57
2019-04-25T07:33:47.311Z,1.50
2019-04-25T07:36:16.019Z,1.60
2019-04-25T07:38:44.455Z,1.40
2019-04-25T07:41:14.738Z,1.67
2019-04-25T07:43:43.852Z,1.40
2019-04-25T07:46:13.490Z,1.60
2019-04-25T07:48:43.865Z,1.60
2019-04-25T07:51:16.200Z,1.37
2019-04-25T07:53:43.687Z,1.50
2019-04-25T07:56:14.082Z,1.40
2019-04-25T07:58:50.522Z,1.37
2019-04-25T08:01:15.110Z,1.27
2019-04-25T08:03:44.091Z,1.30
2019-04-25T08:06:13.806Z,1.40
2019-04-25T08:08:43.633Z,1.40
2019-04-25T08:11:14.046Z,1.37
2019-04-25T08:13:47.603Z,1.40
2019-04-25T08:16:24.083Z,1.30
2019-04-25T08:18:53.964Z,1.30
2019-04-25T08:21:23.874Z,1.33
2019-04-25T08:23:53.372Z,1.03
2019-04-25T08:26:23.997Z,0.97
2019-04-25T08:28:57.218Z,0.83
2019-04-25T08:31:43.923Z,1.13
2019-04-25T08:34:14.342Z,0.90
2019-04-25T08:36:45.369Z,0.90
2019-04-25T08:39:14.528Z,1.50
2019-04-25T08:41:45.433Z,0.80
2019-04-25T08:44:14.199Z,0.95
2019-04-25T08:46:44.229Z,1.00
2019-04-25T08:49:17.839Z,0.90
2019-04-25T08:51:48.066Z,1.00
2019-04-25T08:54:18.209Z,0.90
2019-04-25T08:56:46.644Z,0.90
2019-04-25T08:59:40.016Z,0.90
2019-04-25T09:02:04.762Z,0.85
2019-04-25T09:04:38.036Z,0.95
2019-04-25T09:07:06.790Z,0.90
2019-04-25T09:09:36.923Z,0.82
2019-04-25T09:12:05.850Z,0.95
2019-04-25T09:14:36.272Z,0.90
2019-04-25T09:17:04.615Z,1.10
2019-04-25T09:19:35.847Z,1.00
2019-04-25T09:22:03.428Z,1.05
2019-04-25T09:24:31.900Z,0.80
2019-04-25T09:27:00.687Z,0.93
2019-04-25T09:29:29.490Z,0.98
2019-04-25T09:31:58.294Z,0.88
2019-04-25T09:34:27.107Z,0.80
2019-04-25T09:36:55.705Z,0.78
2019-04-25T09:39:35.703Z,0.90
2019-04-25T09:42:05.227Z,0.80
2019-04-25T09:44:53.794Z,1.00
2019-04-25T09:47:23.442Z,0.90
2019-04-25T09:49:53.536Z,0.82
2019-04-25T09:52:24.360Z,1.00
2019-04-25T09:54:57.594Z,0.88
2019-04-25T09:57:45.987Z,0.60
2019-04-25T10:00:33.394Z,0.98
2019-04-25T10:03:02.559Z,1.10
2019-04-25T10:05:31.101Z,0.70
2019-04-25T10:07:59.620Z,0.70
2019-04-25T10:10:28.857Z,0.70
2019-04-25T10:12:57.297Z,0.70
2019-04-25T10:15:44.708Z,1.00
2019-04-25T10:18:14.542Z,1.00
2019-04-25T10:20:44.643Z,0.80
2019-04-25T10:23:15.578Z,0.98
2019-04-25T10:25:45.082Z,0.80
2019-04-25T10:28:13.741Z,0.98
2019-04-25T10:30:42.977Z,0.93
2019-04-25T10:33:14.102Z,0.98
2019-04-25T10:35:52.106Z,0.70
2019-04-25T10:38:15.009Z,0.80
2019-04-25T10:40:47.260Z,0.72
2019-04-25T10:43:15.911Z,0.82
2019-04-25T10:45:45.988Z,0.80
2019-04-25T10:48:15.297Z,0.80
2019-04-25T10:50:46.842Z,0.98
2019-04-25T10:53:14.482Z,1.00
2019-04-25T10:55:43.445Z,1.12
2019-04-25T10:58:11.885Z,0.90
2019-04-25T11:00:42.325Z,1.02
2019-04-25T11:03:15.782Z,0.80
2019-04-25T11:05:45.202Z,0.82
2019-04-25T11:08:16.738Z,0.85
2019-04-25T11:10:46.995Z,0.80
2019-04-25T11:13:14.467Z,1.00
2019-04-25T11:15:44.839Z,0.90
2019-04-25T11:18:15.254Z,0.85
2019-04-25T11:20:45.335Z,0.80
2019-04-25T11:23:14.489Z,0.80
2019-04-25T11:25:44.994Z,0.85
2019-04-25T11:28:14.429Z,0.70
2019-04-25T11:30:46.521Z,0.80
2019-04-25T11:33:15.964Z,0.80
2019-04-25T11:35:47.512Z,0.95
2019-04-25T11:38:27.888Z,1.02
2019-04-25T11:41:07.378Z,0.75
2019-04-25T11:43:36.538Z,0.60
2019-04-25T11:46:05.775Z,0.53
2019-04-25T11:48:34.343Z,0.70
2019-04-25T11:51:03.686Z,0.60
2019-04-25T11:53:33.891Z,0.80
2019-04-25T11:56:04.148Z,0.75
2019-04-25T11:58:32.885Z,0.90
2019-04-25T12:01:01.652Z,0.95
2019-04-25T12:03:30.254Z,0.80
2019-04-25T12:05:59.044Z,0.80
2019-04-25T12:08:27.853Z,0.57
2019-04-25T12:10:56.862Z,0.60
2019-04-25T12:13:25.665Z,0.57
2019-04-25T12:15:54.842Z,0.60
2019-04-25T12:18:25.638Z,0.60
2019-04-25T12:20:57.818Z,0.50
2019-04-25T12:23:25.476Z,0.80
2019-04-25T12:25:55.259Z,0.70
2019-04-25T12:28:24.512Z,1.07
2019-04-25T12:30:54.995Z,0.70
2019-04-25T12:33:23.923Z,0.50
2019-04-25T12:35:54.159Z,0.60
2019-04-25T12:38:24.575Z,0.93
2019-04-25T12:40:54.411Z,2.08
2019-04-25T12:43:25.720Z,1.00
2019-04-25T12:45:56.164Z,1.25
2019-04-25T12:48:25.062Z,2.95
2019-04-25T12:50:55.338Z,1.05
2019-04-25T12:53:24.098Z,0.82
2019-04-25T12:55:53.781Z,0.78
2019-04-25T12:58:23.535Z,0.65
2019-04-25T13:00:55.677Z,0.75
2019-04-25T13:03:24.117Z,1.52
2019-04-25T13:05:54.000Z,1.82
2019-04-25T13:08:24.153Z,2.70
2019-04-25T13:10:54.389Z,2.20
2019-04-25T13:13:24.109Z,4.72
2019-04-25T13:15:53.311Z,1.00
2019-04-25T13:18:22.266Z,0.72
2019-04-25T13:20:50.806Z,1.07
2019-04-25T13:23:19.308Z,0.75
2019-04-25T13:25:48.558Z,1.00
2019-04-25T13:28:19.098Z,0.80
2019-04-25T13:31:01.417Z,0.85
2019-04-25T13:33:27.055Z,0.80
2019-04-25T13:35:57.638Z,0.75
2019-04-25T13:38:26.807Z,0.90
2019-04-25T13:40:55.274Z,0.68
2019-04-25T13:43:23.990Z,0.60
2019-04-25T13:45:53.211Z,0.93
2019-04-25T13:48:25.569Z,0.80
2019-04-25T13:51:11.562Z,0.93
2019-04-25T13:53:40.026Z,0.90
2019-04-25T13:56:10.127Z,1.10
2019-04-25T13:58:38.666Z,0.90
2019-04-25T14:01:13.215Z,0.80
2019-04-25T14:03:40.168Z,0.60
2019-04-25T14:06:09.870Z,0.82
2019-04-25T14:08:39.159Z,1.25
2019-04-25T14:11:07.734Z,0.80
2019-04-25T14:13:36.239Z,0.80
2019-04-25T14:16:07.775Z,0.70
2019-04-25T14:18:46.982Z,0.75
2019-04-25T14:21:17.078Z,0.75
2019-04-25T14:23:45.780Z,1.15
2019-04-25T14:26:14.292Z,0.80
2019-04-25T14:28:44.263Z,0.68
2019-04-25T14:31:30.326Z,0.70
2019-04-25T14:33:45.503Z,0.80
2019-04-25T14:36:14.150Z,0.80
2019-04-25T14:38:42.583Z,0.90
2019-04-25T14:41:11.027Z,1.12
2019-04-25T14:43:39.556Z,0.90
2019-04-25T14:46:08.074Z,0.88
2019-04-25T14:48:36.503Z,1.00
2019-04-25T14:51:05.883Z,1.27
2019-04-25T14:53:35.223Z,0.60
2019-04-25T14:56:08.717Z,0.62
2019-04-25T14:58:38.906Z,0.70
2019-04-25T15:01:07.512Z,0.90
2019-04-25T15:03:36.119Z,0.88
2019-04-25T15:06:04.668Z,0.85
2019-04-25T15:08:33.109Z,0.80
2019-04-25T15:11:01.559Z,0.60
2019-04-25T15:13:30.326Z,0.70
2019-04-25T15:15:59.125Z,1.10
2019-04-25T15:18:27.630Z,0.82
2019-04-25T15:20:56.174Z,0.95
2019-04-25T15:23:25.436Z,0.90
2019-04-25T15:25:54.045Z,0.85
2019-04-25T15:28:24.328Z,0.72
2019-04-25T15:30:53.300Z,0.93
2019-04-25T15:33:21.941Z,0.75
2019-04-25T15:35:52.474Z,0.88
2019-04-25T15:38:31.678Z,0.70
2019-04-25T15:41:10.582Z,1.10
2019-04-25T15:43:44.103Z,0.90
2019-04-25T15:46:14.298Z,0.80
2019-04-25T15:48:42.747Z,0.80
2019-04-25T15:51:11.322Z,0.90
2019-04-25T15:53:40.279Z,0.90
2019-04-25T15:56:09.143Z,0.98
2019-04-25T15:58:37.646Z,1.20
2019-04-25T16:01:06.647Z,1.00
2019-04-25T16:03:35.438Z,0.98
2019-04-25T16:06:04.546Z,0.80
2019-04-25T16:08:33.071Z,1.20
2019-04-25T16:11:01.543Z,1.20
2019-04-25T16:13:30.186Z,1.12
2019-04-25T16:15:58.726Z,0.80
2019-04-25T16:18:28.405Z,1.00
2019-04-25T16:20:57.115Z,0.80
2019-04-25T16:23:25.638Z,0.85
2019-04-25T16:25:54.069Z,1.00
2019-04-25T16:28:22.500Z,1.27
2019-04-25T16:30:51.454Z,0.70
2019-04-25T16:33:19.948Z,0.53
2019-04-25T16:35:48.413Z,0.82
2019-04-25T16:38:18.151Z,0.85
2019-04-25T16:40:46.588Z,0.90
2019-04-25T16:43:16.912Z,1.00
2019-04-25T16:45:45.710Z,0.70
2019-04-25T16:48:14.378Z,0.80
2019-04-25T16:50:43.089Z,1.07
2019-04-25T16:53:11.895Z,1.25
2019-04-25T16:55:40.937Z,1.10
2019-04-25T16:58:09.667Z,0.85
2019-04-25T17:00:42.801Z,0.62
2019-04-25T17:03:12.111Z,0.82
2019-04-25T17:05:41.007Z,1.20
2019-04-25T17:08:09.967Z,0.88
2019-04-25T17:10:39.508Z,0.95
2019-04-25T17:13:08.525Z,0.90
2019-04-25T17:15:50.901Z,0.82
2019-04-25T17:18:20.650Z,0.90
2019-04-25T17:21:00.047Z,0.80
2019-04-25T17:23:28.482Z,0.70
2019-04-25T17:25:57.093Z,1.00
2019-04-25T17:28:25.935Z,1.40
2019-04-25T17:30:59.353Z,1.17
2019-04-25T17:33:33.568Z,1.62
2019-04-25T17:36:03.782Z,1.20
2019-04-25T17:38:34.249Z,1.40
2019-04-25T17:41:03.463Z,1.35
2019-04-25T17:43:33.044Z,1.27
2019-04-25T17:46:01.861Z,1.60
2019-04-25T17:48:30.591Z,1.22
2019-04-25T17:50:59.294Z,1.10
2019-04-25T17:53:27.806Z,1.27
2019-04-25T17:55:56.271Z,1.10
2019-04-25T17:58:24.780Z,1.07
2019-04-25T18:00:53.563Z,1.30
2019-04-25T18:03:22.639Z,1.30
2019-04-25T18:05:51.071Z,1.20
2019-04-25T18:08:19.647Z,1.03
2019-04-25T18:10:48.385Z,1.30
2019-04-25T18:13:16.985Z,1.20
2019-04-25T18:15:53.754Z,1.40
2019-04-25T18:18:27.064Z,1.30
2019-04-25T18:20:55.504Z,1.30
2019-04-25T18:23:42.582Z,0.97
2019-04-25T18:26:19.315Z,0.90
2019-04-25T18:28:52.697Z,1.00
2019-04-25T18:31:21.522Z,1.07
2019-04-25T18:33:51.916Z,1.00
2019-04-25T18:36:38.748Z,0.90
2019-04-25T18:39:09.170Z,1.10
2019-04-25T18:41:48.050Z,1.20
2019-04-25T18:44:16.837Z,0.90
2019-04-25T18:46:47.254Z,1.13
2019-04-25T18:49:15.878Z,0.80
2019-04-25T18:51:55.888Z,0.80
2019-04-25T18:54:32.141Z,0.73
2019-04-25T18:57:07.902Z,1.07
2019-04-25T18:59:44.563Z,1.03
2019-04-25T19:02:20.806Z,0.90
2019-04-25T19:05:07.421Z,0.90
2019-04-25T19:07:35.937Z,0.80
2019-04-25T19:10:06.781Z,0.80
2019-04-25T19:12:35.249Z,0.83
2019-04-25T19:15:04.816Z,0.80
2019-04-25T19:17:33.252Z,0.90
2019-04-25T19:20:02.555Z,0.87
2019-04-25T19:22:31.322Z,0.90
2019-04-25T19:24:59.758Z,1.00
2019-04-25T19:27:28.726Z,0.70
2019-04-25T19:29:57.162Z,0.80
2019-04-25T19:32:26.575Z,0.88
2019-04-25T19:34:55.438Z,0.80
2019-04-25T19:37:24.139Z,1.00
2019-04-25T19:40:10.639Z,0.67
2019-04-25T19:42:58.712Z,0.60
2019-04-25T19:45:28.022Z,0.80
2019-04-25T19:47:56.470Z,0.80
2019-04-25T19:50:25.319Z,0.80
2019-04-25T19:52:54.335Z,0.60
2019-04-25T19:55:23.059Z,0.60
2019-04-25T19:57:52.490Z,0.50
2019-04-25T20:00:21.860Z,0.70
2019-04-25T20:03:11.501Z,0.57
2019-04-25T20:05:46.171Z,0.60
2019-04-25T20:08:25.782Z,0.70
2019-04-25T20:10:55.962Z,0.90
2019-04-25T20:13:24.384Z,0.70
2019-04-25T20:15:53.846Z,0.70
2019-04-25T20:18:22.533Z,0.70
2019-04-25T20:20:52.025Z,0.70
2019-04-25T20:23:20.597Z,0.53
2019-04-25T20:25:49.254Z,0.60
2019-04-25T20:28:17.678Z,0.63
2019-04-25T20:30:47.042Z,0.67
2019-04-25T20:33:15.928Z,0.70
2019-04-25T20:35:44.823Z,0.60
2019-04-25T20:38:14.558Z,0.60
2019-04-25T20:40:43.287Z,0.63
2019-04-25T20:43:11.713Z,0.73
2019-04-25T20:45:40.528Z,0.63
2019-04-25T20:48:09.889Z,0.73
2019-04-25T20:50:38.672Z,0.87
2019-04-25T20:53:07.454Z,0.67
2019-04-25T20:55:36.357Z,0.60
2019-04-25T20:58:04.969Z,0.63
2019-04-25T21:00:39.975Z,0.77
2019-04-25T21:03:09.251Z,0.73
2019-04-25T21:05:37.750Z,0.90
2019-04-25T21:08:06.355Z,0.60
2019-04-25T21:10:34.817Z,0.73
2019-04-25T21:13:05.140Z,0.60
2019-04-25T21:15:52.164Z,0.50
2019-04-25T21:18:27.934Z,0.57
2019-04-25T21:20:57.131Z,0.60
2019-04-25T21:23:25.947Z,0.87
2019-04-25T21:25:54.729Z,0.70
2019-04-25T21:28:23.756Z,1.00
2019-04-25T21:30:52.722Z,0.80
2019-04-25T21:33:21.573Z,0.90
2019-04-25T21:35:50.824Z,0.80
2019-04-25T21:38:19.786Z,0.93
2019-04-25T21:40:58.860Z,0.80
2019-04-25T21:43:29.979Z,1.10
2019-04-25T21:45:58.762Z,1.10
2019-04-25T21:48:28.603Z,0.80
2019-04-25T21:50:57.416Z,0.80
2019-04-25T21:53:26.216Z,0.77
2019-04-25T21:55:55.556Z,1.00
2019-04-25T21:58:24.632Z,1.40
2019-04-25T22:00:56.423Z,1.90
2019-04-25T22:03:27.046Z,1.17
2019-04-25T22:05:56.852Z,0.90
2019-04-25T22:08:25.893Z,0.90
2019-04-25T22:10:54.935Z,0.80
2019-04-25T22:13:24.551Z,1.10
2019-04-25T22:15:53.442Z,2.50
2019-04-25T22:18:22.477Z,1.60
2019-04-25T22:20:51.329Z,0.93
2019-04-25T22:23:20.132Z,1.10
2019-04-25T22:25:49.335Z,1.00
2019-04-25T22:28:18.153Z,1.00
2019-04-25T22:30:48.662Z,1.00
2019-04-25T22:33:22.161Z,1.00
2019-04-25T22:35:52.305Z,1.10
2019-04-25T22:38:21.006Z,1.30
2019-04-25T22:40:49.673Z,1.00
2019-04-25T22:43:18.774Z,1.07
2019-04-25T22:45:47.749Z,0.97
2019-04-25T22:48:18.901Z,1.10
2019-04-25T22:50:47.742Z,1.10
2019-04-25T22:53:22.806Z,1.10
2019-04-25T22:55:46.881Z,1.00
2019-04-25T22:58:15.846Z,1.50
2019-04-25T23:00:44.320Z,1.43
2019-04-25T23:03:26.498Z,1.30
2019-04-25T23:05:56.894Z,1.10
2019-04-25T23:08:25.936Z,1.13
2019-04-25T23:10:55.231Z,1.20
2019-04-25T23:13:23.674Z,1.20
2019-04-25T23:15:52.182Z,1.30
2019-04-25T23:18:20.926Z,1.10
2019-04-25T23:20:49.363Z,1.10
2019-04-25T23:23:18.407Z,1.23
2019-04-25T23:26:00.982Z,1.30
2019-04-25T23:28:40.496Z,1.10
2019-04-25T23:31:10.613Z,1.30
2019-04-25T23:33:39.113Z,1.00
2019-04-25T23:36:09.096Z,1.13
2019-04-25T23:38:37.786Z,1.40
2019-04-25T23:41:07.225Z,1.27
2019-04-25T23:43:36.169Z,1.40
2019-04-25T23:46:05.683Z,1.10
2019-04-25T23:48:34.791Z,1.40
2019-04-25T23:51:03.497Z,1.30
2019-04-25T23:53:32.407Z,1.60
2019-04-25T23:56:00.903Z,1.20
2019-04-25T23:58:29.990Z,1.10
